Terminal Aerodrome Forecast
Issued by NWS

Home | Current Version | Previous Version | Text Only | Print | Product List | Glossary On
Versions: 1 2 3 4 5 6 7 8 9 10 11 12 13 14 15 16 17 18 19 20 21 22 23 24 25 26 27 28
000
FTUS43 KDLH 281500 AAB
TAFHYR
TAF AMD
KHYR 281516Z 2815/2912 23003KT 5SM -SN BR BKN010 OVC018
      TEMPO 2815/2817 P6SM NSW SCT011 BKN018
     FM281700 31006KT P6SM SCT018
     FM282100 34004KT P6SM SCT022
     FM282300 VRB03KT P6SM SKC=

USA.gov is the U.S. government's official web portal to all federal, state and local government web resources and services.